sensor_id;sensor_type;location;lat;lon;timestamp;temperature;humidity
21906;DHT22;11117;48.644;9.006;2023-06-22T00:00:09;20.50;99.90
21906;DHT22;11117;48.644;9.006;2023-06-22T00:02:35;20.50;99.90
21906;DHT22;11117;48.644;9.006;2023-06-22T00:05:01;20.40;99.90
21906;DHT22;11117;48.644;9.006;2023-06-22T00:07:27;20.40;99.90
21906;DHT22;11117;48.644;9.006;2023-06-22T00:09:52;20.40;99.90
21906;DHT22;11117;48.644;9.006;2023-06-22T00:12:18;20.40;99.90
21906;DHT22;11117;48.644;9.006;2023-06-22T00:14:43;20.40;99.90
21906;DHT22;11117;48.644;9.006;2023-06-22T00:17:09;20.30;99.90
21906;DHT22;11117;48.644;9.006;2023-06-22T00:19:34;20.30;99.90
21906;DHT22;11117;48.644;9.006;2023-06-22T00:22:00;20.30;99.90
21906;DHT22;11117;48.644;9.006;2023-06-22T00:24:25;20.30;99.90
21906;DHT22;11117;48.644;9.006;2023-06-22T00:26:51;20.30;99.90
21906;DHT22;11117;48.644;9.006;2023-06-22T00:29:17;20.30;99.90
21906;DHT22;11117;48.644;9.006;2023-06-22T00:31:42;20.20;99.90
21906;DHT22;11117;48.644;9.006;2023-06-22T00:34:08;20.20;99.90
21906;DHT22;11117;48.644;9.006;2023-06-22T00:36:34;20.20;99.90
21906;DHT22;11117;48.644;9.006;2023-06-22T00:39:00;20.20;99.90
21906;DHT22;11117;48.644;9.006;2023-06-22T00:41:26;20.10;99.90
21906;DHT22;11117;48.644;9.006;2023-06-22T00:43:51;20.10;99.90
21906;DHT22;11117;48.644;9.006;2023-06-22T00:46:17;20.10;99.90
21906;DHT22;11117;48.644;9.006;2023-06-22T00:48:43;20.10;99.90
21906;DHT22;11117;48.644;9.006;2023-06-22T00:51:08;19.90;99.90
21906;DHT22;11117;48.644;9.006;2023-06-22T00:53:34;19.70;99.90
21906;DHT22;11117;48.644;9.006;2023-06-22T00:55:59;19.60;99.90
21906;DHT22;11117;48.644;9.006;2023-06-22T00:58:25;19.70;99.90
21906;DHT22;11117;48.644;9.006;2023-06-22T01:00:51;19.50;99.90
21906;DHT22;11117;48.644;9.006;2023-06-22T01:03:17;19.20;99.90
21906;DHT22;11117;48.644;9.006;2023-06-22T01:05:42;18.90;99.90
21906;DHT22;11117;48.644;9.006;2023-06-22T01:08:36;19.00;99.90
21906;DHT22;11117;48.644;9.006;2023-06-22T01:11:09;18.90;99.90
21906;DHT22;11117;48.644;9.006;2023-06-22T01:16:19;18.70;99.90
21906;DHT22;11117;48.644;9.006;2023-06-22T01:18:48;18.80;99.90
21906;DHT22;11117;48.644;9.006;2023-06-22T01:21:17;18.80;99.90
21906;DHT22;11117;48.644;9.006;2023-06-22T01:26:28;18.70;99.90
21906;DHT22;11117;48.644;9.006;2023-06-22T01:28:59;18.80;99.90
21906;DHT22;11117;48.644;9.006;2023-06-22T01:31:26;18.80;99.90
21906;DHT22;11117;48.644;9.006;2023-06-22T01:34:04;18.90;99.90
21906;DHT22;11117;48.644;9.006;2023-06-22T01:36:31;18.90;99.90
21906;DHT22;11117;48.644;9.006;2023-06-22T01:38:59;19.00;99.90
21906;DHT22;11117;48.644;9.006;2023-06-22T01:41:29;19.10;99.90
21906;DHT22;11117;48.644;9.006;2023-06-22T01:43:55;19.10;99.90
21906;DHT22;11117;48.644;9.006;2023-06-22T01:46:21;19.20;99.90
21906;DHT22;11117;48.644;9.006;2023-06-22T01:48:47;19.20;99.90
21906;DHT22;11117;48.644;9.006;2023-06-22T01:51:13;19.20;99.90
21906;DHT22;11117;48.644;9.006;2023-06-22T01:53:39;19.20;99.90
21906;DHT22;11117;48.644;9.006;2023-06-22T01:56:04;19.20;99.90
21906;DHT22;11117;48.644;9.006;2023-06-22T01:58:31;19.20;99.90
21906;DHT22;11117;48.644;9.006;2023-06-22T02:01:09;19.20;99.90
21906;DHT22;11117;48.644;9.006;2023-06-22T02:03:38;19.20;99.90
21906;DHT22;11117;48.644;9.006;2023-06-22T02:06:08;19.20;99.90
21906;DHT22;11117;48.644;9.006;2023-06-22T02:08:40;19.30;99.90
21906;DHT22;11117;48.644;9.006;2023-06-22T02:11:09;19.20;99.90
21906;DHT22;11117;48.644;9.006;2023-06-22T02:13:36;19.20;99.90
21906;DHT22;11117;48.644;9.006;2023-06-22T02:16:03;19.20;99.90
21906;DHT22;11117;48.644;9.006;2023-06-22T02:18:29;19.20;99.90
21906;DHT22;11117;48.644;9.006;2023-06-22T02:20:54;19.30;99.90
21906;DHT22;11117;48.644;9.006;2023-06-22T02:23:20;19.20;99.90
21906;DHT22;11117;48.644;9.006;2023-06-22T02:25:45;19.10;99.90
21906;DHT22;11117;48.644;9.006;2023-06-22T02:28:11;19.10;99.90
21906;DHT22;11117;48.644;9.006;2023-06-22T02:30:37;19.10;99.90
21906;DHT22;11117;48.644;9.006;2023-06-22T02:33:02;19.10;99.90
21906;DHT22;11117;48.644;9.006;2023-06-22T02:35:29;19.10;99.90
21906;DHT22;11117;48.644;9.006;2023-06-22T02:37:56;19.10;99.90
21906;DHT22;11117;48.644;9.006;2023-06-22T02:40:21;19.10;99.90
21906;DHT22;11117;48.644;9.006;2023-06-22T02:42:47;19.00;99.90
21906;DHT22;11117;48.644;9.006;2023-06-22T02:45:13;19.00;99.90
21906;DHT22;11117;48.644;9.006;2023-06-22T02:47:38;19.00;99.90
21906;DHT22;11117;48.644;9.006;2023-06-22T02:50:04;19.00;99.90
21906;DHT22;11117;48.644;9.006;2023-06-22T02:52:30;19.00;99.90
21906;DHT22;11117;48.644;9.006;2023-06-22T02:54:55;19.00;99.90
21906;DHT22;11117;48.644;9.006;2023-06-22T02:57:21;19.00;99.90
21906;DHT22;11117;48.644;9.006;2023-06-22T02:59:46;19.10;99.90
21906;DHT22;11117;48.644;9.006;2023-06-22T03:02:12;19.10;99.90
21906;DHT22;11117;48.644;9.006;2023-06-22T03:04:38;19.00;99.90
21906;DHT22;11117;48.644;9.006;2023-06-22T03:07:03;19.00;99.90
21906;DHT22;11117;48.644;9.006;2023-06-22T03:09:30;19.00;99.90
21906;DHT22;11117;48.644;9.006;2023-06-22T03:11:56;19.00;99.90
21906;DHT22;11117;48.644;9.006;2023-06-22T03:14:21;18.90;99.90
21906;DHT22;11117;48.644;9.006;2023-06-22T03:16:47;18.80;99.90
21906;DHT22;11117;48.644;9.006;2023-06-22T03:19:13;18.80;99.90
21906;DHT22;11117;48.644;9.006;2023-06-22T03:21:39;18.70;99.90
21906;DHT22;11117;48.644;9.006;2023-06-22T03:24:05;18.80;99.90
21906;DHT22;11117;48.644;9.006;2023-06-22T03:26:31;18.70;99.90
21906;DHT22;11117;48.644;9.006;2023-06-22T03:28:57;18.70;99.90
21906;DHT22;11117;48.644;9.006;2023-06-22T03:31:23;18.50;99.90
21906;DHT22;11117;48.644;9.006;2023-06-22T03:33:49;18.50;99.90
21906;DHT22;11117;48.644;9.006;2023-06-22T03:36:16;18.50;99.90
21906;DHT22;11117;48.644;9.006;2023-06-22T03:38:41;18.60;99.90
21906;DHT22;11117;48.644;9.006;2023-06-22T03:41:07;18.60;99.90
21906;DHT22;11117;48.644;9.006;2023-06-22T03:43:32;18.70;99.90
21906;DHT22;11117;48.644;9.006;2023-06-22T03:45:58;18.70;99.90
21906;DHT22;11117;48.644;9.006;2023-06-22T03:48:23;18.60;99.90
21906;DHT22;11117;48.644;9.006;2023-06-22T03:50:49;18.60;99.90
21906;DHT22;11117;48.644;9.006;2023-06-22T03:53:15;18.60;99.90
21906;DHT22;11117;48.644;9.006;2023-06-22T03:55:49;18.60;99.90
21906;DHT22;11117;48.644;9.006;2023-06-22T03:58:14;18.70;99.90
21906;DHT22;11117;48.644;9.006;2023-06-22T04:00:40;18.80;99.90
21906;DHT22;11117;48.644;9.006;2023-06-22T04:03:05;18.80;99.90
21906;DHT22;11117;48.644;9.006;2023-06-22T04:05:31;18.80;99.90
21906;DHT22;11117;48.644;9.006;2023-06-22T04:07:59;18.90;99.90
21906;DHT22;11117;48.644;9.006;2023-06-22T04:10:24;18.90;99.90
21906;DHT22;11117;48.644;9.006;2023-06-22T04:12:50;19.10;99.90
21906;DHT22;11117;48.644;9.006;2023-06-22T04:15:15;19.20;99.90
21906;DHT22;11117;48.644;9.006;2023-06-22T04:17:41;19.30;99.90
21906;DHT22;11117;48.644;9.006;2023-06-22T04:20:07;19.50;99.90
21906;DHT22;11117;48.644;9.006;2023-06-22T04:22:33;19.60;99.90
21906;DHT22;11117;48.644;9.006;2023-06-22T04:24:58;19.90;99.90
21906;DHT22;11117;48.644;9.006;2023-06-22T04:27:24;20.10;99.90
21906;DHT22;11117;48.644;9.006;2023-06-22T04:29:49;20.20;99.90
21906;DHT22;11117;48.644;9.006;2023-06-22T04:32:15;20.40;99.90
21906;DHT22;11117;48.644;9.006;2023-06-22T04:34:42;20.60;99.90
21906;DHT22;11117;48.644;9.006;2023-06-22T04:37:07;20.80;99.90
21906;DHT22;11117;48.644;9.006;2023-06-22T04:39:33;20.90;99.90
21906;DHT22;11117;48.644;9.006;2023-06-22T04:41:58;21.00;99.90
21906;DHT22;11117;48.644;9.006;2023-06-22T04:44:24;21.10;99.90
21906;DHT22;11117;48.644;9.006;2023-06-22T04:46:50;21.30;99.90
21906;DHT22;11117;48.644;9.006;2023-06-22T04:49:16;21.50;99.90
21906;DHT22;11117;48.644;9.006;2023-06-22T04:51:42;21.60;99.90
21906;DHT22;11117;48.644;9.006;2023-06-22T04:54:09;21.90;99.90
21906;DHT22;11117;48.644;9.006;2023-06-22T04:56:35;22.10;99.90
21906;DHT22;11117;48.644;9.006;2023-06-22T04:59:01;22.20;99.90
21906;DHT22;11117;48.644;9.006;2023-06-22T05:01:26;22.40;99.90
21906;DHT22;11117;48.644;9.006;2023-06-22T05:03:52;22.40;99.90
21906;DHT22;11117;48.644;9.006;2023-06-22T05:06:18;22.70;99.90
21906;DHT22;11117;48.644;9.006;2023-06-22T05:08:46;22.90;99.90
21906;DHT22;11117;48.644;9.006;2023-06-22T05:11:12;23.10;99.90
21906;DHT22;11117;48.644;9.006;2023-06-22T05:13:37;23.30;99.90
21906;DHT22;11117;48.644;9.006;2023-06-22T05:16:03;23.50;99.90
21906;DHT22;11117;48.644;9.006;2023-06-22T05:18:30;23.70;99.90
21906;DHT22;11117;48.644;9.006;2023-06-22T05:20:56;23.90;99.90
21906;DHT22;11117;48.644;9.006;2023-06-22T05:23:21;24.10;99.90
21906;DHT22;11117;48.644;9.006;2023-06-22T05:25:47;24.20;99.90
21906;DHT22;11117;48.644;9.006;2023-06-22T05:28:12;24.20;99.90
21906;DHT22;11117;48.644;9.006;2023-06-22T05:30:38;24.30;99.90
21906;DHT22;11117;48.644;9.006;2023-06-22T05:33:03;24.40;99.90
21906;DHT22;11117;48.644;9.006;2023-06-22T05:35:29;24.50;99.90
21906;DHT22;11117;48.644;9.006;2023-06-22T05:37:55;24.60;99.90
21906;DHT22;11117;48.644;9.006;2023-06-22T05:40:21;24.70;99.90
21906;DHT22;11117;48.644;9.006;2023-06-22T05:42:47;24.90;99.90
21906;DHT22;11117;48.644;9.006;2023-06-22T05:45:12;25.10;99.90
21906;DHT22;11117;48.644;9.006;2023-06-22T05:47:38;25.00;99.90
21906;DHT22;11117;48.644;9.006;2023-06-22T05:50:05;25.20;99.90
21906;DHT22;11117;48.644;9.006;2023-06-22T05:52:30;25.30;99.90
21906;DHT22;11117;48.644;9.006;2023-06-22T05:54:56;25.40;99.90
21906;DHT22;11117;48.644;9.006;2023-06-22T05:57:21;25.30;99.90
21906;DHT22;11117;48.644;9.006;2023-06-22T05:59:47;25.40;99.90
21906;DHT22;11117;48.644;9.006;2023-06-22T06:02:12;25.30;99.90
21906;DHT22;11117;48.644;9.006;2023-06-22T06:04:38;25.20;99.90
21906;DHT22;11117;48.644;9.006;2023-06-22T06:07:04;25.10;99.90
21906;DHT22;11117;48.644;9.006;2023-06-22T06:09:29;25.10;99.90
21906;DHT22;11117;48.644;9.006;2023-06-22T06:11:55;25.20;99.90
21906;DHT22;11117;48.644;9.006;2023-06-22T06:14:20;25.30;99.90
21906;DHT22;11117;48.644;9.006;2023-06-22T06:16:46;25.40;99.90
21906;DHT22;11117;48.644;9.006;2023-06-22T06:19:11;25.50;99.90
21906;DHT22;11117;48.644;9.006;2023-06-22T06:21:37;25.60;99.90
21906;DHT22;11117;48.644;9.006;2023-06-22T06:24:02;25.70;99.90
21906;DHT22;11117;48.644;9.006;2023-06-22T06:26:28;25.80;99.90
21906;DHT22;11117;48.644;9.006;2023-06-22T06:28:55;25.70;99.90
21906;DHT22;11117;48.644;9.006;2023-06-22T06:31:20;25.80;99.90
21906;DHT22;11117;48.644;9.006;2023-06-22T06:33:46;25.80;99.90
21906;DHT22;11117;48.644;9.006;2023-06-22T06:36:11;25.90;99.90
21906;DHT22;11117;48.644;9.006;2023-06-22T06:38:37;25.90;99.90
21906;DHT22;11117;48.644;9.006;2023-06-22T06:41:02;26.00;99.90
21906;DHT22;11117;48.644;9.006;2023-06-22T06:43:28;26.10;99.90
21906;DHT22;11117;48.644;9.006;2023-06-22T06:45:53;26.10;99.90
21906;DHT22;11117;48.644;9.006;2023-06-22T06:48:19;26.20;99.90
21906;DHT22;11117;48.644;9.006;2023-06-22T06:50:44;26.30;99.90
21906;DHT22;11117;48.644;9.006;2023-06-22T06:53:10;26.10;99.90
21906;DHT22;11117;48.644;9.006;2023-06-22T06:55:36;26.20;99.90
21906;DHT22;11117;48.644;9.006;2023-06-22T06:58:02;26.20;99.90
21906;DHT22;11117;48.644;9.006;2023-06-22T07:00:27;26.30;99.90
21906;DHT22;11117;48.644;9.006;2023-06-22T07:02:54;26.40;99.90
21906;DHT22;11117;48.644;9.006;2023-06-22T07:05:19;26.40;99.90
21906;DHT22;11117;48.644;9.006;2023-06-22T07:07:45;26.50;99.90
21906;DHT22;11117;48.644;9.006;2023-06-22T07:10:10;26.50;99.90
21906;DHT22;11117;48.644;9.006;2023-06-22T07:12:36;26.50;99.90
21906;DHT22;11117;48.644;9.006;2023-06-22T07:15:06;26.60;99.90
21906;DHT22;11117;48.644;9.006;2023-06-22T07:17:32;26.60;99.90
21906;DHT22;11117;48.644;9.006;2023-06-22T07:19:57;26.60;99.90
21906;DHT22;11117;48.644;9.006;2023-06-22T07:22:23;26.60;99.90
21906;DHT22;11117;48.644;9.006;2023-06-22T07:24:48;26.60;99.90
21906;DHT22;11117;48.644;9.006;2023-06-22T07:27:14;26.60;99.90
21906;DHT22;11117;48.644;9.006;2023-06-22T07:29:39;26.50;99.90
21906;DHT22;11117;48.644;9.006;2023-06-22T07:32:05;26.60;99.90
21906;DHT22;11117;48.644;9.006;2023-06-22T07:34:31;26.60;99.90
21906;DHT22;11117;48.644;9.006;2023-06-22T07:36:56;26.70;99.90
21906;DHT22;11117;48.644;9.006;2023-06-22T07:39:22;26.70;99.90
21906;DHT22;11117;48.644;9.006;2023-06-22T07:41:47;26.80;99.90
21906;DHT22;11117;48.644;9.006;2023-06-22T07:44:13;26.90;99.90
21906;DHT22;11117;48.644;9.006;2023-06-22T07:46:38;26.80;99.90
21906;DHT22;11117;48.644;9.006;2023-06-22T07:49:04;26.80;99.90
21906;DHT22;11117;48.644;9.006;2023-06-22T07:51:29;27.00;99.90
21906;DHT22;11117;48.644;9.006;2023-06-22T07:53:55;27.20;99.90
21906;DHT22;11117;48.644;9.006;2023-06-22T07:56:20;27.10;99.90
21906;DHT22;11117;48.644;9.006;2023-06-22T07:58:47;27.10;99.90
21906;DHT22;11117;48.644;9.006;2023-06-22T08:01:14;27.30;99.90
21906;DHT22;11117;48.644;9.006;2023-06-22T08:03:39;27.40;99.90
21906;DHT22;11117;48.644;9.006;2023-06-22T08:06:05;27.40;99.90
21906;DHT22;11117;48.644;9.006;2023-06-22T08:08:31;27.40;99.90
21906;DHT22;11117;48.644;9.006;2023-06-22T08:10:57;27.70;99.90
21906;DHT22;11117;48.644;9.006;2023-06-22T08:13:22;28.20;99.90
21906;DHT22;11117;48.644;9.006;2023-06-22T08:15:48;28.30;99.90
21906;DHT22;11117;48.644;9.006;2023-06-22T08:18:13;28.40;99.90
21906;DHT22;11117;48.644;9.006;2023-06-22T08:20:39;28.40;99.90
21906;DHT22;11117;48.644;9.006;2023-06-22T08:23:04;28.70;99.90
21906;DHT22;11117;48.644;9.006;2023-06-22T08:25:30;29.00;99.90
21906;DHT22;11117;48.644;9.006;2023-06-22T08:27:55;29.00;99.90
21906;DHT22;11117;48.644;9.006;2023-06-22T08:30:21;29.00;99.90
21906;DHT22;11117;48.644;9.006;2023-06-22T08:32:46;29.20;99.90
21906;DHT22;11117;48.644;9.006;2023-06-22T08:35:12;29.30;99.90
21906;DHT22;11117;48.644;9.006;2023-06-22T08:37:37;29.30;99.90
21906;DHT22;11117;48.644;9.006;2023-06-22T08:40:05;29.10;99.90
21906;DHT22;11117;48.644;9.006;2023-06-22T08:42:31;29.50;99.90
21906;DHT22;11117;48.644;9.006;2023-06-22T08:44:56;29.50;99.90
21906;DHT22;11117;48.644;9.006;2023-06-22T08:47:22;29.70;99.90
21906;DHT22;11117;48.644;9.006;2023-06-22T08:49:48;29.90;99.90
21906;DHT22;11117;48.644;9.006;2023-06-22T08:52:14;30.00;99.90
21906;DHT22;11117;48.644;9.006;2023-06-22T08:54:39;30.10;99.90
21906;DHT22;11117;48.644;9.006;2023-06-22T08:57:05;30.30;99.90
21906;DHT22;11117;48.644;9.006;2023-06-22T08:59:31;30.30;99.90
21906;DHT22;11117;48.644;9.006;2023-06-22T09:01:57;30.30;99.90
21906;DHT22;11117;48.644;9.006;2023-06-22T09:04:22;30.50;99.90
21906;DHT22;11117;48.644;9.006;2023-06-22T09:06:48;30.80;99.90
21906;DHT22;11117;48.644;9.006;2023-06-22T09:09:15;30.70;99.90
21906;DHT22;11117;48.644;9.006;2023-06-22T09:11:40;30.70;99.90
21906;DHT22;11117;48.644;9.006;2023-06-22T09:14:06;30.90;99.90
21906;DHT22;11117;48.644;9.006;2023-06-22T09:16:32;31.00;99.90
21906;DHT22;11117;48.644;9.006;2023-06-22T09:18:59;31.10;99.90
21906;DHT22;11117;48.644;9.006;2023-06-22T09:21:24;31.10;99.90
21906;DHT22;11117;48.644;9.006;2023-06-22T09:23:50;31.20;99.90
21906;DHT22;11117;48.644;9.006;2023-06-22T09:26:16;31.10;99.90
21906;DHT22;11117;48.644;9.006;2023-06-22T09:28:41;30.90;99.90
21906;DHT22;11117;48.644;9.006;2023-06-22T09:31:07;30.90;99.90
21906;DHT22;11117;48.644;9.006;2023-06-22T09:33:33;30.90;99.90
21906;DHT22;11117;48.644;9.006;2023-06-22T09:35:58;30.60;99.90
21906;DHT22;11117;48.644;9.006;2023-06-22T09:38:24;30.70;99.90
21906;DHT22;11117;48.644;9.006;2023-06-22T09:40:49;30.80;99.90
21906;DHT22;11117;48.644;9.006;2023-06-22T09:43:15;31.00;99.30
21906;DHT22;11117;48.644;9.006;2023-06-22T09:45:40;31.00;99.40
21906;DHT22;11117;48.644;9.006;2023-06-22T09:48:06;30.90;99.00
21906;DHT22;11117;48.644;9.006;2023-06-22T09:50:31;31.00;98.80
21906;DHT22;11117;48.644;9.006;2023-06-22T09:52:59;31.00;98.00
21906;DHT22;11117;48.644;9.006;2023-06-22T09:55:24;31.20;97.80
21906;DHT22;11117;48.644;9.006;2023-06-22T09:57:50;31.30;98.20
21906;DHT22;11117;48.644;9.006;2023-06-22T10:00:17;31.60;97.30
21906;DHT22;11117;48.644;9.006;2023-06-22T10:02:43;31.80;97.40
21906;DHT22;11117;48.644;9.006;2023-06-22T10:05:08;32.00;97.20
21906;DHT22;11117;48.644;9.006;2023-06-22T10:07:34;32.20;96.60
21906;DHT22;11117;48.644;9.006;2023-06-22T10:09:59;32.30;96.50
21906;DHT22;11117;48.644;9.006;2023-06-22T10:12:27;32.50;96.10
21906;DHT22;11117;48.644;9.006;2023-06-22T10:14:53;32.50;95.00
21906;DHT22;11117;48.644;9.006;2023-06-22T10:17:18;32.50;94.80
21906;DHT22;11117;48.644;9.006;2023-06-22T10:19:44;32.80;95.30
21906;DHT22;11117;48.644;9.006;2023-06-22T10:22:09;32.80;94.90
21906;DHT22;11117;48.644;9.006;2023-06-22T10:24:35;32.80;95.20
21906;DHT22;11117;48.644;9.006;2023-06-22T10:27:00;32.70;95.30
21906;DHT22;11117;48.644;9.006;2023-06-22T10:29:26;32.90;94.40
21906;DHT22;11117;48.644;9.006;2023-06-22T10:31:52;33.00;94.60
21906;DHT22;11117;48.644;9.006;2023-06-22T10:34:17;32.80;95.30
21906;DHT22;11117;48.644;9.006;2023-06-22T10:36:43;33.00;95.30
21906;DHT22;11117;48.644;9.006;2023-06-22T10:39:08;33.00;94.60
21906;DHT22;11117;48.644;9.006;2023-06-22T10:41:35;33.00;94.70
21906;DHT22;11117;48.644;9.006;2023-06-22T10:44:00;33.20;94.20
21906;DHT22;11117;48.644;9.006;2023-06-22T10:46:26;33.40;94.10
21906;DHT22;11117;48.644;9.006;2023-06-22T10:48:52;33.70;93.80
21906;DHT22;11117;48.644;9.006;2023-06-22T10:51:17;33.90;93.30
21906;DHT22;11117;48.644;9.006;2023-06-22T10:53:43;34.00;93.20
21906;DHT22;11117;48.644;9.006;2023-06-22T10:56:08;34.10;93.00
21906;DHT22;11117;48.644;9.006;2023-06-22T10:58:34;34.10;92.80
21906;DHT22;11117;48.644;9.006;2023-06-22T11:00:59;34.00;92.70
21906;DHT22;11117;48.644;9.006;2023-06-22T11:03:25;33.70;92.20
21906;DHT22;11117;48.644;9.006;2023-06-22T11:05:50;33.70;92.20
21906;DHT22;11117;48.644;9.006;2023-06-22T11:08:16;33.80;92.20
21906;DHT22;11117;48.644;9.006;2023-06-22T11:10:42;33.90;92.30
21906;DHT22;11117;48.644;9.006;2023-06-22T11:13:08;34.10;92.00
21906;DHT22;11117;48.644;9.006;2023-06-22T11:15:33;34.10;91.50
21906;DHT22;11117;48.644;9.006;2023-06-22T11:18:00;33.20;92.00
21906;DHT22;11117;48.644;9.006;2023-06-22T11:20:25;33.20;92.40
21906;DHT22;11117;48.644;9.006;2023-06-22T11:22:51;32.90;92.30
21906;DHT22;11117;48.644;9.006;2023-06-22T11:25:16;32.90;92.70
21906;DHT22;11117;48.644;9.006;2023-06-22T11:27:42;33.30;92.30
21906;DHT22;11117;48.644;9.006;2023-06-22T11:30:08;33.60;92.70
21906;DHT22;11117;48.644;9.006;2023-06-22T11:32:34;33.80;92.40
21906;DHT22;11117;48.644;9.006;2023-06-22T11:34:59;33.90;92.40
21906;DHT22;11117;48.644;9.006;2023-06-22T11:37:26;34.10;92.40
21906;DHT22;11117;48.644;9.006;2023-06-22T11:39:52;34.00;92.60
21906;DHT22;11117;48.644;9.006;2023-06-22T11:42:17;34.20;93.00
21906;DHT22;11117;48.644;9.006;2023-06-22T11:44:43;33.80;93.00
21906;DHT22;11117;48.644;9.006;2023-06-22T11:47:08;33.60;93.00
21906;DHT22;11117;48.644;9.006;2023-06-22T11:49:34;33.10;94.10
21906;DHT22;11117;48.644;9.006;2023-06-22T11:51:59;33.20;93.80
21906;DHT22;11117;48.644;9.006;2023-06-22T11:54:25;33.50;93.50
21906;DHT22;11117;48.644;9.006;2023-06-22T11:56:50;33.60;93.20
21906;DHT22;11117;48.644;9.006;2023-06-22T11:59:16;33.70;93.10
21906;DHT22;11117;48.644;9.006;2023-06-22T12:01:41;33.60;93.00
21906;DHT22;11117;48.644;9.006;2023-06-22T12:04:07;33.70;92.90
21906;DHT22;11117;48.644;9.006;2023-06-22T12:06:33;33.70;93.30
21906;DHT22;11117;48.644;9.006;2023-06-22T12:08:59;33.60;93.30
21906;DHT22;11117;48.644;9.006;2023-06-22T12:11:24;33.60;93.60
21906;DHT22;11117;48.644;9.006;2023-06-22T12:13:50;33.70;93.10
21906;DHT22;11117;48.644;9.006;2023-06-22T12:16:15;33.60;92.80
21906;DHT22;11117;48.644;9.006;2023-06-22T12:18:41;33.40;93.20
21906;DHT22;11117;48.644;9.006;2023-06-22T12:21:07;33.50;93.00
21906;DHT22;11117;48.644;9.006;2023-06-22T12:23:32;33.40;93.20
21906;DHT22;11117;48.644;9.006;2023-06-22T12:25:58;33.30;93.50
21906;DHT22;11117;48.644;9.006;2023-06-22T12:28:23;33.10;94.00
21906;DHT22;11117;48.644;9.006;2023-06-22T12:30:49;33.00;94.00
21906;DHT22;11117;48.644;9.006;2023-06-22T12:33:15;32.90;94.20
21906;DHT22;11117;48.644;9.006;2023-06-22T12:35:40;32.90;93.90
21906;DHT22;11117;48.644;9.006;2023-06-22T12:38:06;33.20;94.10
21906;DHT22;11117;48.644;9.006;2023-06-22T12:40:31;33.10;93.60
21906;DHT22;11117;48.644;9.006;2023-06-22T12:42:58;32.80;94.10
21906;DHT22;11117;48.644;9.006;2023-06-22T12:45:24;32.70;94.10
21906;DHT22;11117;48.644;9.006;2023-06-22T12:47:50;32.40;94.10
21906;DHT22;11117;48.644;9.006;2023-06-22T12:50:15;32.30;94.50
21906;DHT22;11117;48.644;9.006;2023-06-22T12:52:41;32.20;94.70
21906;DHT22;11117;48.644;9.006;2023-06-22T12:55:07;32.00;94.90
21906;DHT22;11117;48.644;9.006;2023-06-22T12:57:32;31.60;95.40
21906;DHT22;11117;48.644;9.006;2023-06-22T12:59:58;31.70;96.20
21906;DHT22;11117;48.644;9.006;2023-06-22T13:02:23;31.70;96.10
21906;DHT22;11117;48.644;9.006;2023-06-22T13:04:49;31.70;96.10
21906;DHT22;11117;48.644;9.006;2023-06-22T13:07:14;31.60;95.40
21906;DHT22;11117;48.644;9.006;2023-06-22T13:09:40;31.50;95.60
21906;DHT22;11117;48.644;9.006;2023-06-22T13:12:06;31.30;95.40
21906;DHT22;11117;48.644;9.006;2023-06-22T13:14:31;31.60;95.10
21906;DHT22;11117;48.644;9.006;2023-06-22T13:16:57;31.60;94.90
21906;DHT22;11117;48.644;9.006;2023-06-22T13:19:22;31.60;94.90
21906;DHT22;11117;48.644;9.006;2023-06-22T13:21:48;31.60;94.80
21906;DHT22;11117;48.644;9.006;2023-06-22T13:24:13;31.80;94.70
21906;DHT22;11117;48.644;9.006;2023-06-22T13:26:39;31.90;95.30
21906;DHT22;11117;48.644;9.006;2023-06-22T13:29:05;32.20;94.00
21906;DHT22;11117;48.644;9.006;2023-06-22T13:31:30;32.30;94.00
21906;DHT22;11117;48.644;9.006;2023-06-22T13:33:56;32.40;93.70
21906;DHT22;11117;48.644;9.006;2023-06-22T13:36:21;32.20;94.20
21906;DHT22;11117;48.644;9.006;2023-06-22T13:38:47;32.30;94.30
21906;DHT22;11117;48.644;9.006;2023-06-22T13:41:12;32.10;94.40
21906;DHT22;11117;48.644;9.006;2023-06-22T13:43:38;32.30;94.20
21906;DHT22;11117;48.644;9.006;2023-06-22T13:46:03;32.20;94.50
21906;DHT22;11117;48.644;9.006;2023-06-22T13:48:29;32.10;94.70
21906;DHT22;11117;48.644;9.006;2023-06-22T13:50:54;32.20;94.60
21906;DHT22;11117;48.644;9.006;2023-06-22T13:53:20;32.20;94.40
21906;DHT22;11117;48.644;9.006;2023-06-22T13:55:45;32.50;94.50
21906;DHT22;11117;48.644;9.006;2023-06-22T13:58:11;32.80;94.50
21906;DHT22;11117;48.644;9.006;2023-06-22T14:00:36;33.00;94.10
21906;DHT22;11117;48.644;9.006;2023-06-22T14:03:03;32.70;93.90
21906;DHT22;11117;48.644;9.006;2023-06-22T14:05:28;32.70;94.40
21906;DHT22;11117;48.644;9.006;2023-06-22T14:07:55;33.30;94.10
21906;DHT22;11117;48.644;9.006;2023-06-22T14:10:21;33.70;93.70
21906;DHT22;11117;48.644;9.006;2023-06-22T14:12:46;33.60;93.10
21906;DHT22;11117;48.644;9.006;2023-06-22T14:15:12;33.20;92.80
21906;DHT22;11117;48.644;9.006;2023-06-22T14:17:37;32.80;92.10
21906;DHT22;11117;48.644;9.006;2023-06-22T14:20:03;32.40;92.60
21906;DHT22;11117;48.644;9.006;2023-06-22T14:22:30;32.50;91.80
21906;DHT22;11117;48.644;9.006;2023-06-22T14:24:56;32.50;91.10
21906;DHT22;11117;48.644;9.006;2023-06-22T14:27:21;32.60;88.40
21906;DHT22;11117;48.644;9.006;2023-06-22T14:29:47;32.70;89.90
21906;DHT22;11117;48.644;9.006;2023-06-22T14:32:12;33.00;83.70
21906;DHT22;11117;48.644;9.006;2023-06-22T14:34:38;32.90;83.20
21906;DHT22;11117;48.644;9.006;2023-06-22T14:37:03;33.20;82.20
21906;DHT22;11117;48.644;9.006;2023-06-22T14:39:29;32.80;78.40
21906;DHT22;11117;48.644;9.006;2023-06-22T14:41:54;32.50;75.90
21906;DHT22;11117;48.644;9.006;2023-06-22T14:44:20;32.30;76.40
21906;DHT22;11117;48.644;9.006;2023-06-22T14:46:46;32.40;76.50
21906;DHT22;11117;48.644;9.006;2023-06-22T14:49:11;32.00;76.30
21906;DHT22;11117;48.644;9.006;2023-06-22T14:51:37;32.00;76.60
21906;DHT22;11117;48.644;9.006;2023-06-22T14:54:02;31.80;77.30
21906;DHT22;11117;48.644;9.006;2023-06-22T14:56:28;31.80;78.30
21906;DHT22;11117;48.644;9.006;2023-06-22T14:58:59;31.50;76.20
21906;DHT22;11117;48.644;9.006;2023-06-22T15:01:25;31.50;75.70
21906;DHT22;11117;48.644;9.006;2023-06-22T15:03:50;31.30;76.50
21906;DHT22;11117;48.644;9.006;2023-06-22T15:06:16;31.50;76.50
21906;DHT22;11117;48.644;9.006;2023-06-22T15:08:41;31.30;76.20
21906;DHT22;11117;48.644;9.006;2023-06-22T15:11:07;31.40;76.60
21906;DHT22;11117;48.644;9.006;2023-06-22T15:13:34;31.80;77.30
21906;DHT22;11117;48.644;9.006;2023-06-22T15:16:03;31.70;77.70
21906;DHT22;11117;48.644;9.006;2023-06-22T15:18:28;31.70;74.50
21906;DHT22;11117;48.644;9.006;2023-06-22T15:20:54;31.40;74.90
21906;DHT22;11117;48.644;9.006;2023-06-22T15:23:19;31.30;74.70
21906;DHT22;11117;48.644;9.006;2023-06-22T15:25:45;31.20;75.10